createdAt,value
2022-10-09T00:00:47.670Z,2.07
2022-10-09T00:03:14.535Z,1.83
2022-10-09T00:05:41.557Z,1.57
2022-10-09T00:08:08.018Z,1.90
2022-10-09T00:10:34.468Z,1.60
2022-10-09T00:13:00.846Z,2.00
2022-10-09T00:15:27.214Z,4.47
2022-10-09T00:17:53.544Z,5.67
2022-10-09T00:20:19.932Z,4.77
2022-10-09T00:22:46.589Z,4.90
2022-10-09T00:25:13.167Z,7.10
2022-10-09T00:27:39.570Z,8.60
2022-10-09T00:30:06.780Z,9.40
2022-10-09T00:32:33.187Z,7.27
2022-10-09T00:34:59.604Z,4.87
2022-10-09T00:37:25.912Z,4.40
2022-10-09T00:39:52.255Z,2.60
2022-10-09T00:42:18.685Z,3.00
2022-10-09T00:44:47.860Z,3.20
2022-10-09T00:47:41.054Z,2.77
2022-10-09T00:50:35.215Z,2.63
2022-10-09T00:53:03.508Z,3.63
2022-10-09T00:55:31.297Z,4.57
2022-10-09T00:58:00.117Z,3.93
2022-10-09T01:00:27.374Z,3.13
2022-10-09T01:02:54.527Z,3.57
2022-10-09T01:05:49.916Z,3.40
2022-10-09T01:08:46.995Z,4.53
2022-10-09T01:11:40.895Z,3.40
2022-10-09T01:14:20.118Z,4.20
2022-10-09T01:17:12.161Z,2.73
2022-10-09T01:19:56.786Z,2.63
2022-10-09T01:22:57.148Z,2.30
2022-10-09T01:25:35.460Z,2.50
2022-10-09T01:28:05.508Z,2.50
2022-10-09T01:30:33.364Z,2.40
2022-10-09T01:32:59.947Z,2.70
2022-10-09T01:35:26.952Z,2.77
2022-10-09T01:37:55.825Z,2.77
2022-10-09T01:40:24.701Z,2.93
2022-10-09T01:42:51.753Z,4.87
2022-10-09T01:45:18.150Z,5.80
2022-10-09T01:47:44.521Z,5.27
2022-10-09T01:50:27.903Z,5.40
2022-10-09T01:53:00.142Z,6.00
2022-10-09T01:55:45.227Z,4.83
2022-10-09T01:58:23.627Z,4.77
2022-10-09T02:01:11.384Z,3.50
2022-10-09T02:03:41.194Z,3.63
2022-10-09T02:06:11.104Z,5.20
2022-10-09T02:08:39.237Z,2.93
2022-10-09T02:11:06.613Z,2.90
2022-10-09T02:13:35.219Z,3.40
2022-10-09T02:16:11.594Z,3.50
2022-10-09T02:18:45.725Z,2.97
2022-10-09T02:21:19.976Z,2.43
2022-10-09T02:23:49.020Z,2.63
2022-10-09T02:26:15.849Z,2.43
2022-10-09T02:28:45.858Z,2.00
2022-10-09T02:31:26.849Z,2.33
2022-10-09T02:33:58.493Z,1.97
2022-10-09T02:36:25.739Z,2.17
2022-10-09T02:38:52.457Z,2.50
2022-10-09T02:41:19.451Z,2.20
2022-10-09T02:43:45.778Z,2.10
2022-10-09T02:46:12.300Z,2.00
2022-10-09T02:48:38.671Z,2.77
2022-10-09T02:51:05.059Z,2.90
2022-10-09T02:53:31.405Z,2.50
2022-10-09T02:55:57.800Z,1.93
2022-10-09T02:58:24.278Z,2.33
2022-10-09T03:00:52.232Z,2.53
2022-10-09T03:03:19.553Z,2.40
2022-10-09T03:05:46.511Z,2.80
2022-10-09T03:08:14.026Z,2.70
2022-10-09T03:10:41.186Z,3.10
2022-10-09T03:13:07.959Z,3.00
2022-10-09T03:15:35.257Z,2.60
2022-10-09T03:18:01.857Z,2.70
2022-10-09T03:20:29.975Z,2.50
2022-10-09T03:22:56.931Z,2.20
2022-10-09T03:25:23.344Z,2.50
2022-10-09T03:27:49.718Z,2.40
2022-10-09T03:30:16.261Z,4.20
2022-10-09T03:32:42.569Z,9.63
2022-10-09T03:35:09.192Z,8.23
2022-10-09T03:37:35.556Z,11.20
2022-10-09T03:40:01.853Z,6.93
2022-10-09T03:42:28.183Z,4.23
2022-10-09T03:44:54.528Z,3.23
2022-10-09T03:47:20.832Z,3.57
2022-10-09T03:49:47.137Z,2.90
2022-10-09T03:52:13.491Z,3.10
2022-10-09T03:54:39.823Z,3.77
2022-10-09T03:57:06.299Z,5.40
2022-10-09T03:59:32.662Z,2.97
2022-10-09T04:01:59.375Z,3.37
2022-10-09T04:04:25.676Z,3.17
2022-10-09T04:06:52.012Z,2.63
2022-10-09T04:09:18.311Z,2.80
2022-10-09T04:11:44.620Z,3.07
2022-10-09T04:14:11.081Z,3.07
2022-10-09T04:16:40.441Z,2.43
2022-10-09T04:19:06.937Z,2.60
2022-10-09T04:21:33.751Z,2.90
2022-10-09T04:24:00.138Z,2.50
2022-10-09T04:26:26.636Z,2.60
2022-10-09T04:28:52.979Z,2.20
2022-10-09T04:31:19.367Z,2.20
2022-10-09T04:33:45.766Z,2.33
2022-10-09T04:36:12.167Z,2.30
2022-10-09T04:38:38.483Z,2.27
2022-10-09T04:41:06.772Z,2.20
2022-10-09T04:43:34.418Z,2.60
2022-10-09T04:46:07.911Z,2.60
2022-10-09T04:48:39.187Z,2.57
2022-10-09T04:51:06.307Z,2.27
2022-10-09T04:53:36.823Z,2.63
2022-10-09T04:56:05.640Z,2.30
2022-10-09T04:58:32.432Z,2.57
2022-10-09T05:00:58.907Z,2.47
2022-10-09T05:03:25.317Z,2.67
2022-10-09T05:05:51.722Z,1.97
2022-10-09T05:08:18.069Z,2.83
2022-10-09T05:10:44.468Z,2.53
2022-10-09T05:13:10.799Z,3.03
2022-10-09T05:15:37.678Z,2.70
2022-10-09T05:18:04.240Z,2.70
2022-10-09T05:20:30.549Z,3.37
2022-10-09T05:22:56.895Z,2.90
2022-10-09T05:25:23.249Z,2.90
2022-10-09T05:27:49.584Z,2.20
2022-10-09T05:30:15.947Z,2.80
2022-10-09T05:32:42.334Z,2.47
2022-10-09T05:35:08.859Z,2.70
2022-10-09T05:37:35.160Z,2.43
2022-10-09T05:40:01.613Z,3.87
2022-10-09T05:42:27.973Z,3.13
2022-10-09T05:44:54.285Z,3.27
2022-10-09T05:47:20.718Z,2.90
2022-10-09T05:49:47.065Z,3.60
2022-10-09T05:52:13.486Z,2.83
2022-10-09T05:54:39.985Z,2.63
2022-10-09T05:57:06.273Z,3.40
2022-10-09T05:59:32.627Z,3.10
2022-10-09T06:01:59.227Z,2.80
2022-10-09T06:04:25.703Z,2.87
2022-10-09T06:06:52.193Z,2.70
2022-10-09T06:09:22.874Z,2.37
2022-10-09T06:11:50.749Z,2.90
2022-10-09T06:14:17.295Z,3.37
2022-10-09T06:16:45.566Z,2.73
2022-10-09T06:19:13.830Z,3.27
2022-10-09T06:21:40.773Z,2.77
2022-10-09T06:24:07.613Z,2.60
2022-10-09T06:26:34.627Z,2.80
2022-10-09T06:29:02.506Z,3.30
2022-10-09T06:31:31.299Z,4.07
2022-10-09T06:34:02.595Z,4.67
2022-10-09T06:36:32.566Z,3.80
2022-10-09T06:39:00.371Z,3.80
2022-10-09T06:41:28.514Z,3.10
2022-10-09T06:44:00.293Z,3.27
2022-10-09T06:46:35.647Z,2.83
2022-10-09T06:49:02.810Z,2.60
2022-10-09T06:51:30.085Z,3.23
2022-10-09T06:53:58.911Z,3.30
2022-10-09T06:56:27.567Z,2.70
2022-10-09T06:58:54.550Z,3.03
2022-10-09T07:01:41.858Z,3.27
2022-10-09T07:04:13.315Z,2.90
2022-10-09T07:06:44.950Z,3.07
2022-10-09T07:09:13.698Z,2.80
2022-10-09T07:11:43.088Z,3.23
2022-10-09T07:14:11.097Z,3.00
2022-10-09T07:16:40.636Z,3.43
2022-10-09T07:19:11.761Z,2.90
2022-10-09T07:21:40.249Z,3.60
2022-10-09T07:24:07.321Z,3.53
2022-10-09T07:26:36.612Z,3.23
2022-10-09T07:29:05.049Z,2.83
2022-10-09T07:31:34.351Z,2.97
2022-10-09T07:34:00.931Z,2.67
2022-10-09T07:36:27.356Z,3.27
2022-10-09T07:38:57.972Z,3.07
2022-10-09T07:41:26.682Z,2.63
2022-10-09T07:43:53.315Z,2.37
2022-10-09T07:46:21.802Z,3.07
2022-10-09T07:48:48.868Z,3.07
2022-10-09T07:51:20.370Z,2.60
2022-10-09T07:53:47.287Z,2.60
2022-10-09T07:56:17.893Z,3.38
2022-10-09T07:58:49.304Z,2.70
2022-10-09T08:01:20.111Z,3.28
2022-10-09T08:03:47.528Z,3.20
2022-10-09T08:06:14.009Z,3.15
2022-10-09T08:08:40.617Z,3.75
2022-10-09T08:11:12.556Z,4.63
2022-10-09T08:13:39.826Z,2.88
2022-10-09T08:16:07.098Z,4.10
2022-10-09T08:18:34.198Z,3.92
2022-10-09T08:21:06.589Z,2.90
2022-10-09T08:23:33.430Z,3.63
2022-10-09T08:25:59.855Z,2.92
2022-10-09T08:28:26.323Z,3.45
2022-10-09T08:30:52.921Z,2.75
2022-10-09T08:33:21.912Z,2.85
2022-10-09T08:35:49.811Z,3.67
2022-10-09T08:38:37.474Z,3.65
2022-10-09T08:41:08.593Z,2.75
2022-10-09T08:43:39.952Z,2.92
2022-10-09T08:46:20.754Z,2.83
2022-10-09T08:48:49.203Z,2.90
2022-10-09T08:51:22.492Z,2.83
2022-10-09T08:53:55.076Z,2.58
2022-10-09T08:56:23.117Z,2.85
2022-10-09T08:58:49.478Z,3.05
2022-10-09T09:01:37.477Z,2.95
2022-10-09T09:04:22.343Z,2.55
2022-10-09T09:07:13.656Z,2.17
2022-10-09T09:09:54.821Z,2.22
2022-10-09T09:12:48.488Z,2.30
2022-10-09T09:15:33.847Z,2.30
2022-10-09T09:18:12.433Z,2.10
2022-10-09T09:20:57.113Z,2.08
2022-10-09T09:23:30.175Z,2.33
2022-10-09T09:25:56.749Z,2.72
2022-10-09T09:28:34.019Z,2.70
2022-10-09T09:31:13.700Z,1.92
2022-10-09T09:33:48.162Z,2.00
2022-10-09T09:36:22.536Z,1.50
2022-10-09T09:39:26.019Z,1.77
2022-10-09T09:41:35.915Z,2.30
2022-10-09T09:44:02.312Z,1.70
2022-10-09T09:46:32.101Z,1.23
2022-10-09T09:48:58.499Z,2.00
2022-10-09T09:51:29.121Z,1.70
2022-10-09T09:54:04.049Z,2.38
2022-10-09T09:57:07.119Z,1.70
2022-10-09T09:59:38.748Z,1.60
2022-10-09T10:02:18.653Z,2.30
2022-10-09T10:04:52.553Z,2.20
2022-10-09T10:07:35.800Z,1.88
2022-10-09T10:10:21.143Z,2.08
2022-10-09T10:12:52.417Z,2.05
2022-10-09T10:15:23.270Z,1.98
2022-10-09T10:17:57.174Z,2.53
2022-10-09T10:20:23.941Z,2.20
2022-10-09T10:22:53.140Z,2.65
2022-10-09T10:25:23.361Z,2.28
2022-10-09T10:27:55.388Z,3.28
2022-10-09T10:30:21.754Z,2.10
2022-10-09T10:32:58.704Z,2.33
2022-10-09T10:35:38.490Z,1.48
2022-10-09T10:38:19.925Z,1.73
2022-10-09T10:40:55.766Z,2.45
2022-10-09T10:43:27.992Z,2.15
2022-10-09T10:46:25.209Z,2.60
2022-10-09T10:48:52.265Z,2.00
2022-10-09T10:51:47.749Z,1.40
2022-10-09T10:54:35.744Z,2.47
2022-10-09T10:57:09.080Z,4.85
2022-10-09T11:00:00.215Z,3.13
2022-10-09T11:02:33.474Z,1.63
2022-10-09T11:05:18.950Z,0.90
2022-10-09T11:08:00.018Z,1.67
2022-10-09T11:10:32.360Z,1.23
2022-10-09T11:13:40.846Z,1.83
2022-10-09T11:16:40.600Z,1.23
2022-10-09T11:19:10.017Z,1.35
2022-10-09T11:21:51.787Z,1.70
2022-10-09T11:24:47.582Z,1.33
2022-10-09T11:27:26.504Z,2.20
2022-10-09T11:30:02.238Z,1.45
2022-10-09T11:32:51.239Z,1.23
2022-10-09T11:35:23.180Z,1.58
2022-10-09T11:38:07.946Z,1.42
2022-10-09T11:40:40.959Z,1.15
2022-10-09T11:43:15.919Z,1.27
2022-10-09T11:46:18.101Z,1.35
2022-10-09T11:49:24.864Z,2.08
2022-10-09T11:52:11.143Z,1.33
2022-10-09T11:54:37.613Z,1.08
2022-10-09T11:57:06.376Z,1.40
2022-10-09T11:59:36.505Z,1.20
2022-10-09T12:02:21.256Z,0.80
2022-10-09T12:04:54.930Z,1.20
2022-10-09T12:07:28.863Z,1.42
2022-10-09T12:10:25.779Z,1.17
2022-10-09T12:13:28.987Z,0.88
2022-10-09T12:15:57.613Z,1.35
2022-10-09T12:18:31.840Z,1.15
2022-10-09T12:21:02.931Z,1.77
2022-10-09T12:23:33.489Z,1.60
2022-10-09T12:26:01.729Z,0.93
2022-10-09T12:28:41.970Z,2.20
2022-10-09T12:31:21.296Z,0.90
2022-10-09T12:33:59.137Z,1.17
2022-10-09T12:36:28.332Z,1.10
2022-10-09T12:38:54.985Z,1.00
2022-10-09T12:41:34.003Z,1.27
2022-10-09T12:44:01.675Z,0.80
2022-10-09T12:46:35.827Z,0.77
2022-10-09T12:49:05.961Z,1.38
2022-10-09T12:51:34.003Z,1.02
2022-10-09T12:54:08.628Z,1.35
2022-10-09T12:56:38.367Z,1.00
2022-10-09T12:59:06.945Z,1.50
2022-10-09T13:01:35.024Z,1.20
2022-10-09T13:04:04.431Z,0.98
2022-10-09T13:06:44.651Z,1.63
2022-10-09T13:09:21.540Z,1.00
2022-10-09T13:11:57.951Z,1.23
2022-10-09T13:14:41.176Z,2.38
2022-10-09T13:17:23.583Z,1.58
2022-10-09T13:19:52.679Z,1.38
2022-10-09T13:22:26.897Z,1.20
2022-10-09T13:24:56.082Z,1.63
2022-10-09T13:27:32.494Z,1.08
2022-10-09T13:30:00.426Z,1.70
2022-10-09T13:32:27.637Z,0.90
2022-10-09T13:34:55.180Z,1.05
2022-10-09T13:37:23.775Z,0.70
2022-10-09T13:39:52.146Z,1.73
2022-10-09T13:42:19.308Z,0.73
2022-10-09T13:44:45.633Z,0.75
2022-10-09T13:47:12.100Z,0.90
2022-10-09T13:49:38.519Z,0.90
2022-10-09T13:52:04.896Z,1.13
2022-10-09T13:54:31.582Z,0.77
2022-10-09T13:56:57.941Z,0.98
2022-10-09T13:59:24.624Z,0.90
2022-10-09T14:01:51.586Z,1.00
2022-10-09T14:04:18.844Z,1.17
2022-10-09T14:06:45.187Z,1.15
2022-10-09T14:09:11.618Z,1.38
2022-10-09T14:11:37.964Z,1.15
2022-10-09T14:14:04.332Z,1.20
2022-10-09T14:16:31.968Z,1.23
2022-10-09T14:19:00.298Z,0.80
2022-10-09T14:21:27.249Z,1.00
2022-10-09T14:23:58.686Z,1.05
2022-10-09T14:26:26.415Z,1.48
2022-10-09T14:28:53.843Z,1.00
2022-10-09T14:31:20.949Z,1.27
2022-10-09T14:33:48.571Z,1.60
2022-10-09T14:36:20.184Z,1.25
2022-10-09T14:38:48.534Z,0.75
2022-10-09T14:41:17.873Z,1.25
2022-10-09T14:43:48.882Z,0.95
2022-10-09T14:46:17.746Z,1.20
2022-10-09T14:48:45.760Z,1.30
2022-10-09T14:51:15.015Z,0.98
2022-10-09T14:53:41.983Z,1.10
2022-10-09T14:56:11.696Z,1.25
2022-10-09T14:58:38.711Z,0.88
2022-10-09T15:01:05.509Z,1.00
2022-10-09T15:03:33.854Z,1.13
2022-10-09T15:06:08.333Z,1.17
2022-10-09T15:08:37.356Z,1.00
2022-10-09T15:11:04.643Z,1.08
2022-10-09T15:13:33.579Z,1.02
2022-10-09T15:16:01.092Z,1.17
2022-10-09T15:18:28.634Z,1.45
2022-10-09T15:20:55.451Z,1.30
2022-10-09T15:23:22.371Z,1.35
2022-10-09T15:25:50.168Z,2.90
2022-10-09T15:28:17.220Z,1.98
2022-10-09T15:30:45.702Z,0.90
2022-10-09T15:33:12.092Z,0.98
2022-10-09T15:35:38.541Z,1.23
2022-10-09T15:38:04.877Z,1.08
2022-10-09T15:40:31.206Z,0.82
2022-10-09T15:42:57.603Z,1.13
2022-10-09T15:45:23.948Z,1.42
2022-10-09T15:47:51.956Z,1.40
2022-10-09T15:50:18.345Z,1.27
2022-10-09T15:52:44.654Z,1.30
2022-10-09T15:55:11.088Z,1.27
2022-10-09T15:57:37.472Z,1.38
2022-10-09T16:00:04.375Z,1.80
2022-10-09T16:02:30.730Z,2.15
2022-10-09T16:04:57.160Z,2.08
2022-10-09T16:07:23.498Z,2.72
2022-10-09T16:09:49.898Z,2.10
2022-10-09T16:12:16.344Z,2.08
2022-10-09T16:14:42.661Z,1.70
2022-10-09T16:17:11.514Z,2.20
2022-10-09T16:19:38.024Z,1.88
2022-10-09T16:22:05.751Z,1.30
2022-10-09T16:24:32.496Z,1.80
2022-10-09T16:26:59.045Z,1.40
2022-10-09T16:29:25.563Z,1.50
2022-10-09T16:31:55.749Z,2.03
2022-10-09T16:34:22.185Z,2.60
2022-10-09T16:36:48.548Z,2.33
2022-10-09T16:39:14.926Z,2.60
2022-10-09T16:41:42.204Z,2.42
2022-10-09T16:44:12.841Z,2.15
2022-10-09T16:46:39.176Z,2.55
2022-10-09T16:49:05.584Z,3.00
2022-10-09T16:51:35.534Z,2.97
2022-10-09T16:54:04.710Z,3.08
2022-10-09T16:56:34.697Z,4.53
2022-10-09T16:59:04.538Z,6.07
2022-10-09T17:01:31.037Z,5.43
2022-10-09T17:04:00.118Z,8.25
2022-10-09T17:06:27.500Z,7.78
2022-10-09T17:08:57.550Z,7.35
2022-10-09T17:11:25.647Z,6.18
2022-10-09T17:13:56.550Z,6.88
2022-10-09T17:16:25.884Z,6.43
2022-10-09T17:18:54.150Z,5.55
2022-10-09T17:21:20.819Z,5.45
2022-10-09T17:23:47.511Z,5.00
2022-10-09T17:26:17.076Z,4.60
2022-10-09T17:28:45.136Z,4.65
2022-10-09T17:31:14.622Z,4.05
2022-10-09T17:33:45.811Z,4.05
2022-10-09T17:36:14.190Z,2.92
2022-10-09T17:38:44.677Z,3.35
2022-10-09T17:41:15.680Z,3.25
2022-10-09T17:43:42.212Z,4.10
2022-10-09T17:46:08.762Z,4.20
2022-10-09T17:48:36.086Z,3.80
2022-10-09T17:51:06.080Z,3.50
2022-10-09T17:53:32.512Z,3.28
2022-10-09T17:56:03.653Z,3.22
2022-10-09T17:58:30.298Z,4.05
2022-10-09T18:00:56.816Z,3.67
2022-10-09T18:03:23.647Z,4.18
2022-10-09T18:05:51.045Z,12.20
2022-10-09T18:08:19.490Z,3.90
2022-10-09T18:10:46.627Z,4.38
2022-10-09T18:13:13.234Z,4.28
2022-10-09T18:15:42.085Z,3.88
2022-10-09T18:18:09.582Z,3.70
2022-10-09T18:20:39.813Z,3.20
2022-10-09T18:23:08.475Z,3.60
2022-10-09T18:25:40.029Z,4.13
2022-10-09T18:28:06.756Z,3.35
2022-10-09T18:30:33.224Z,2.90
2022-10-09T18:32:59.625Z,2.90
2022-10-09T18:35:26.872Z,2.78
2022-10-09T18:37:53.355Z,3.00
2022-10-09T18:40:19.801Z,3.03
2022-10-09T18:42:46.121Z,3.17
2022-10-09T18:45:14.589Z,3.28
2022-10-09T18:47:41.643Z,2.92
2022-10-09T18:50:10.691Z,3.42
2022-10-09T18:52:37.499Z,2.95
2022-10-09T18:55:06.102Z,3.92
2022-10-09T18:57:34.126Z,3.40
2022-10-09T19:00:01.700Z,3.67
2022-10-09T19:02:28.124Z,4.07
2022-10-09T19:04:54.864Z,3.63
2022-10-09T19:07:21.324Z,3.83
2022-10-09T19:09:53.615Z,3.92
2022-10-09T19:12:23.493Z,3.90
2022-10-09T19:14:49.834Z,3.70
2022-10-09T19:17:16.325Z,3.13
2022-10-09T19:19:42.860Z,3.50
2022-10-09T19:22:14.815Z,3.05
2022-10-09T19:24:42.474Z,2.85
2022-10-09T19:27:09.740Z,2.60
2022-10-09T19:29:36.505Z,3.10
2022-10-09T19:32:02.929Z,3.13
2022-10-09T19:34:29.455Z,2.70
2022-10-09T19:36:55.824Z,3.13
2022-10-09T19:39:22.322Z,2.83
2022-10-09T19:41:49.379Z,2.63
2022-10-09T19:44:15.762Z,2.42
2022-10-09T19:46:42.229Z,2.70
2022-10-09T19:49:09.423Z,3.03
2022-10-09T19:51:36.685Z,2.80
2022-10-09T19:54:04.476Z,2.65
2022-10-09T19:56:33.299Z,2.42
2022-10-09T19:59:04.488Z,3.07
2022-10-09T20:01:33.101Z,2.33
2022-10-09T20:04:05.623Z,2.70
2022-10-09T20:06:32.172Z,2.38
2022-10-09T20:08:58.513Z,2.70
2022-10-09T20:11:26.369Z,2.20
2022-10-09T20:13:56.020Z,3.00
2022-10-09T20:16:24.468Z,3.05
2022-10-09T20:22:31.967Z,3.03
2022-10-09T20:24:58.360Z,2.90
2022-10-09T20:27:24.753Z,3.27
2022-10-09T20:29:52.917Z,2.97
2022-10-09T20:32:19.344Z,2.93
2022-10-09T20:34:45.763Z,2.73
2022-10-09T20:37:12.301Z,2.50
2022-10-09T20:39:38.746Z,2.55
2022-10-09T20:42:05.262Z,2.38
2022-10-09T20:44:31.850Z,2.50
2022-10-09T20:46:58.264Z,2.60
2022-10-09T20:49:24.850Z,3.40
2022-10-09T20:51:53.062Z,2.83
2022-10-09T20:54:21.242Z,2.40
2022-10-09T20:56:48.143Z,2.40
2022-10-09T20:59:15.082Z,2.60
2022-10-09T21:01:41.561Z,2.03
2022-10-09T21:04:10.304Z,3.07
2022-10-09T21:06:37.165Z,2.47
2022-10-09T21:09:03.709Z,2.60
2022-10-09T21:11:32.317Z,2.33
2022-10-09T21:13:58.682Z,2.70
2022-10-09T21:16:25.626Z,2.80
2022-10-09T21:18:57.153Z,2.80
2022-10-09T21:21:23.584Z,2.40
2022-10-09T21:23:51.989Z,2.53
2022-10-09T21:26:19.913Z,2.70
2022-10-09T21:28:46.945Z,2.50
2022-10-09T21:31:17.814Z,2.47
2022-10-09T21:33:45.115Z,2.40
2022-10-09T21:36:50.813Z,2.50
2022-10-09T21:39:25.085Z,2.87
2022-10-09T21:41:51.511Z,2.10
2022-10-09T21:44:17.850Z,2.83
2022-10-09T21:46:44.338Z,2.93
2022-10-09T21:49:24.902Z,3.27
2022-10-09T21:51:51.762Z,2.97
2022-10-09T21:54:18.119Z,3.13
2022-10-09T21:56:44.496Z,2.30
2022-10-09T21:59:11.409Z,2.17
2022-10-09T22:01:37.889Z,3.00
2022-10-09T22:04:04.798Z,2.40
2022-10-09T22:06:31.135Z,2.20
2022-10-09T22:08:58.972Z,2.23
2022-10-09T22:11:25.682Z,2.70
2022-10-09T22:13:52.020Z,2.63
2022-10-09T22:16:18.417Z,2.53
2022-10-09T22:18:44.761Z,2.30
2022-10-09T22:21:14.489Z,2.60
2022-10-09T22:23:41.849Z,2.70
2022-10-09T22:26:16.950Z,2.60
2022-10-09T22:28:47.165Z,2.40
2022-10-09T22:31:25.329Z,2.83
2022-10-09T22:33:53.991Z,2.57
2022-10-09T22:36:22.348Z,2.53
2022-10-09T22:38:48.819Z,2.40
2022-10-09T22:41:18.982Z,2.27
2022-10-09T22:43:47.917Z,2.13
2022-10-09T22:46:17.114Z,2.33
2022-10-09T22:48:44.350Z,2.33
2022-10-09T22:51:14.432Z,2.23
2022-10-09T22:53:41.949Z,2.43
2022-10-09T22:56:12.431Z,2.10
2022-10-09T22:58:38.823Z,2.33
2022-10-09T23:01:11.980Z,2.07
2022-10-09T23:03:38.409Z,2.50
2022-10-09T23:06:19.138Z,2.20
2022-10-09T23:08:47.621Z,2.90
2022-10-09T23:11:15.661Z,2.20
2022-10-09T23:13:42.704Z,2.20
2022-10-09T23:16:11.187Z,2.57
2022-10-09T23:18:38.283Z,2.83
2022-10-09T23:21:07.393Z,2.20
2022-10-09T23:23:34.169Z,3.60
2022-10-09T23:26:08.067Z,2.73
2022-10-09T23:28:35.354Z,3.30
2022-10-09T23:31:14.207Z,2.77
2022-10-09T23:33:42.563Z,2.60
2022-10-09T23:36:11.166Z,2.27
2022-10-09T23:38:38.622Z,2.60
2022-10-09T23:41:08.000Z,2.53
2022-10-09T23:43:39.046Z,3.07
2022-10-09T23:46:10.415Z,3.67
2022-10-09T23:48:36.931Z,2.50
2022-10-09T23:51:05.122Z,2.30
2022-10-09T23:53:31.473Z,3.23
2022-10-09T23:55:57.879Z,1.67
2022-10-09T23:58:24.590Z,1.90
